createdAt,value
2023-03-20T00:02:02.919Z,2.64
2023-03-20T00:04:30.931Z,2.68
2023-03-20T00:06:58.809Z,2.69
2023-03-20T00:09:27.267Z,2.60
2023-03-20T00:11:56.810Z,2.72
2023-03-20T00:14:26.613Z,2.72
2023-03-20T00:16:54.587Z,2.56
2023-03-20T00:19:24.461Z,2.56
2023-03-20T00:21:53.309Z,2.29
2023-03-20T00:24:21.694Z,2.70
2023-03-20T00:26:51.585Z,2.70
2023-03-20T00:29:23.240Z,2.72
2023-03-20T00:31:53.244Z,2.67
2023-03-20T00:34:23.891Z,2.77
2023-03-20T00:36:52.365Z,2.81
2023-03-20T00:39:20.645Z,2.71
2023-03-20T00:41:52.732Z,2.89
2023-03-20T00:44:25.220Z,2.91
2023-03-20T00:46:57.337Z,2.88
2023-03-20T00:49:29.236Z,2.87
2023-03-20T00:51:58.252Z,2.74
2023-03-20T00:54:26.643Z,2.92
2023-03-20T00:56:59.377Z,2.94
2023-03-20T00:59:32.001Z,2.79
2023-03-20T01:02:02.689Z,2.96
2023-03-20T01:04:37.466Z,2.96
2023-03-20T01:07:06.391Z,2.96
2023-03-20T01:09:34.905Z,2.98
2023-03-20T01:12:04.158Z,3.01
2023-03-20T01:14:32.303Z,3.01
2023-03-20T01:17:01.590Z,2.92
2023-03-20T01:19:29.456Z,2.65
2023-03-20T01:21:57.539Z,2.97
2023-03-20T01:24:25.620Z,3.03
2023-03-20T01:26:54.856Z,3.03
2023-03-20T01:29:27.270Z,3.04
2023-03-20T01:31:55.508Z,3.05
2023-03-20T01:34:24.722Z,3.07
2023-03-20T01:36:54.820Z,3.08
2023-03-20T01:39:24.519Z,3.07
2023-03-20T01:41:54.299Z,2.80
2023-03-20T01:44:24.954Z,3.07
2023-03-20T01:46:53.751Z,3.10
2023-03-20T01:50:19.537Z,3.04
2023-03-20T01:52:49.796Z,3.06
2023-03-20T01:55:18.025Z,3.06
2023-03-20T01:57:46.528Z,3.05
2023-03-20T02:00:16.920Z,2.99
2023-03-20T02:02:46.450Z,3.08
2023-03-20T02:05:18.846Z,3.11
2023-03-20T02:07:51.569Z,3.15
2023-03-20T02:10:20.221Z,3.04
2023-03-20T02:12:48.472Z,3.16
2023-03-20T02:15:18.339Z,3.16
2023-03-20T02:17:46.442Z,3.17
2023-03-20T02:20:29.096Z,3.17
2023-03-20T02:23:37.410Z,3.17
2023-03-20T02:26:27.120Z,3.18
2023-03-20T02:29:28.691Z,3.18
2023-03-20T02:32:26.722Z,3.01
2023-03-20T02:35:26.398Z,3.19
2023-03-20T02:38:27.466Z,3.15
2023-03-20T02:41:04.230Z,3.19
2023-03-20T02:43:43.936Z,2.72
2023-03-20T02:46:18.668Z,3.19
2023-03-20T02:48:54.528Z,3.18
2023-03-20T02:51:30.246Z,2.66
2023-03-20T02:54:08.017Z,3.19
2023-03-20T02:56:43.631Z,3.23
2023-03-20T02:59:23.297Z,3.18
2023-03-20T03:01:56.275Z,3.23
2023-03-20T03:04:29.150Z,3.23
2023-03-20T03:06:59.560Z,3.25
2023-03-20T03:09:32.285Z,3.10
2023-03-20T03:12:06.052Z,3.25
2023-03-20T03:14:40.276Z,3.25
2023-03-20T03:17:11.113Z,2.52
2023-03-20T03:19:42.505Z,3.11
2023-03-20T03:22:10.495Z,3.25
2023-03-20T03:24:44.291Z,3.26
2023-03-20T03:27:19.564Z,3.17
2023-03-20T03:29:52.770Z,3.29
2023-03-20T03:32:26.119Z,3.29
2023-03-20T03:34:55.730Z,3.30
2023-03-20T03:37:32.350Z,3.31
2023-03-20T03:40:11.931Z,3.32
2023-03-20T03:42:43.280Z,3.33
2023-03-20T03:45:17.425Z,3.34
2023-03-20T03:47:51.051Z,3.33
2023-03-20T03:50:24.530Z,3.23
2023-03-20T03:52:55.383Z,3.36
2023-03-20T03:55:28.479Z,3.37
2023-03-20T03:58:01.193Z,3.09
2023-03-20T04:00:29.876Z,3.41
2023-03-20T04:02:59.159Z,3.43
2023-03-20T04:05:33.575Z,3.45
2023-03-20T04:08:04.243Z,3.46
2023-03-20T04:10:33.546Z,3.34
2023-03-20T04:13:01.663Z,3.49
2023-03-20T04:15:29.615Z,3.37
2023-03-20T04:17:57.719Z,3.05
2023-03-20T04:20:26.645Z,3.55
2023-03-20T04:22:54.503Z,3.57
2023-03-20T04:25:26.095Z,3.09
2023-03-20T04:27:55.777Z,3.51
2023-03-20T04:30:23.793Z,3.62
2023-03-20T04:32:51.755Z,3.65
2023-03-20T04:35:20.050Z,3.64
2023-03-20T04:37:48.128Z,3.66
2023-03-20T04:40:16.189Z,3.59
2023-03-20T04:42:45.623Z,3.72
2023-03-20T04:45:14.923Z,3.73
2023-03-20T04:47:43.883Z,3.52
2023-03-20T04:50:14.102Z,3.79
2023-03-20T04:52:42.064Z,3.82
2023-03-20T04:55:10.689Z,3.84
2023-03-20T04:57:38.675Z,3.86
2023-03-20T05:00:07.863Z,3.89
2023-03-20T05:02:37.248Z,3.74
2023-03-20T05:05:05.825Z,3.94
2023-03-20T05:07:33.953Z,3.98
2023-03-20T05:10:01.861Z,4.00
2023-03-20T05:12:29.740Z,3.92
2023-03-20T05:14:57.558Z,4.05
2023-03-20T05:17:26.114Z,4.04
2023-03-20T05:19:55.380Z,3.80
2023-03-20T05:22:23.181Z,4.09
2023-03-20T05:24:51.086Z,4.10
2023-03-20T05:27:19.733Z,4.13
2023-03-20T05:29:47.590Z,4.13
2023-03-20T05:32:15.670Z,4.14
2023-03-20T05:34:46.153Z,4.16
2023-03-20T05:37:15.465Z,4.18
2023-03-20T05:39:43.415Z,4.22
2023-03-20T05:42:11.314Z,4.25
2023-03-20T05:44:39.207Z,4.29
2023-03-20T05:47:07.335Z,4.34
2023-03-20T05:49:35.220Z,4.36
2023-03-20T05:52:03.054Z,4.38
2023-03-20T05:54:32.317Z,4.42
2023-03-20T05:57:00.301Z,4.44
2023-03-20T05:59:28.170Z,4.48
2023-03-20T06:01:56.155Z,4.20
2023-03-20T06:04:24.139Z,4.27
2023-03-20T06:06:52.044Z,4.53
2023-03-20T06:09:20.168Z,4.58
2023-03-20T06:11:49.730Z,4.62
2023-03-20T06:14:17.598Z,4.65
2023-03-20T06:16:45.630Z,4.70
2023-03-20T06:19:13.815Z,4.73
2023-03-20T06:21:41.654Z,4.76
2023-03-20T06:24:09.680Z,4.49
2023-03-20T06:26:37.649Z,4.74
2023-03-20T06:29:06.952Z,4.72
2023-03-20T06:31:35.162Z,4.74
2023-03-20T06:34:03.187Z,4.78
2023-03-20T06:36:31.295Z,4.80
2023-03-20T06:38:59.289Z,4.82
2023-03-20T06:41:34.210Z,4.83
2023-03-20T06:44:03.474Z,4.59
2023-03-20T06:46:32.861Z,4.77
2023-03-20T06:49:01.444Z,4.81
2023-03-20T06:51:29.588Z,4.77
2023-03-20T06:53:57.521Z,4.95
2023-03-20T06:56:25.683Z,5.06
2023-03-20T06:58:53.622Z,5.11
2023-03-20T07:01:21.707Z,4.16
2023-03-20T07:03:51.673Z,4.13
2023-03-20T07:06:19.608Z,5.21
2023-03-20T07:08:47.518Z,5.24
2023-03-20T07:11:15.505Z,5.03
2023-03-20T07:13:44.137Z,5.31
2023-03-20T07:16:12.081Z,5.30
2023-03-20T07:18:40.111Z,5.31
2023-03-20T07:21:17.485Z,5.32
2023-03-20T07:23:45.438Z,5.30
2023-03-20T07:26:13.872Z,5.37
2023-03-20T07:28:41.789Z,5.39
2023-03-20T07:31:19.644Z,5.45
2023-03-20T07:33:48.063Z,5.52
2023-03-20T07:36:17.369Z,5.52
2023-03-20T07:38:45.308Z,5.47
2023-03-20T07:41:13.426Z,5.58
2023-03-20T07:43:42.228Z,5.64
2023-03-20T07:46:11.566Z,5.73
2023-03-20T07:48:40.668Z,5.71
2023-03-20T07:51:09.175Z,5.63
2023-03-20T07:53:38.464Z,5.87
2023-03-20T07:56:07.158Z,5.85
2023-03-20T07:58:35.028Z,6.04
2023-03-20T08:01:03.740Z,6.07
2023-03-20T08:03:33.134Z,6.05
2023-03-20T08:06:01.834Z,5.97
2023-03-20T08:08:29.774Z,5.93
2023-03-20T08:10:59.191Z,5.96
2023-03-20T08:13:26.999Z,6.00
2023-03-20T08:15:54.807Z,6.01
2023-03-20T08:18:22.944Z,6.04
2023-03-20T08:20:52.639Z,6.03
2023-03-20T08:23:21.077Z,5.82
2023-03-20T08:25:49.699Z,5.19
2023-03-20T08:28:19.569Z,5.84
2023-03-20T08:30:48.295Z,6.03
2023-03-20T08:33:17.748Z,5.10
2023-03-20T08:35:55.922Z,5.97
2023-03-20T08:38:24.132Z,5.79
2023-03-20T08:40:55.065Z,6.05
2023-03-20T08:43:24.324Z,6.00
2023-03-20T08:45:52.522Z,5.78
2023-03-20T08:48:20.423Z,6.10
2023-03-20T08:50:48.346Z,6.15
2023-03-20T08:53:16.579Z,6.23
2023-03-20T08:55:49.132Z,6.32
2023-03-20T08:58:17.380Z,6.33
2023-03-20T09:00:46.736Z,6.32
2023-03-20T09:03:15.773Z,5.92
2023-03-20T09:05:44.787Z,6.37
2023-03-20T09:08:13.069Z,6.44
2023-03-20T09:10:42.024Z,6.16
2023-03-20T09:13:26.192Z,6.42
2023-03-20T09:15:57.527Z,6.41
2023-03-20T09:18:26.012Z,6.37
2023-03-20T09:20:56.642Z,5.67
2023-03-20T09:23:24.646Z,6.61
2023-03-20T09:25:52.769Z,6.58
2023-03-20T09:28:20.761Z,6.49
2023-03-20T09:30:48.803Z,6.25
2023-03-20T09:33:18.889Z,6.44
2023-03-20T09:35:47.032Z,5.91
2023-03-20T09:38:15.024Z,6.50
2023-03-20T09:40:52.578Z,6.40
2023-03-20T09:43:43.491Z,6.20
2023-03-20T09:46:22.892Z,5.90
2023-03-20T09:48:59.364Z,6.29
2023-03-20T09:51:37.935Z,6.33
2023-03-20T09:54:15.773Z,3.54
2023-03-20T09:56:43.911Z,4.75
2023-03-20T09:59:15.590Z,6.17
2023-03-20T10:01:49.426Z,6.33
2023-03-20T10:04:19.116Z,6.41
2023-03-20T10:06:47.752Z,6.43
2023-03-20T10:09:23.399Z,6.41
2023-03-20T10:12:24.824Z,6.34
2023-03-20T10:15:02.436Z,6.23
2023-03-20T10:17:46.808Z,6.40
2023-03-20T10:20:27.082Z,6.43
2023-03-20T10:22:59.309Z,6.02
2023-03-20T10:25:33.388Z,6.50
2023-03-20T10:28:04.352Z,6.40
2023-03-20T10:30:45.372Z,6.48
2023-03-20T10:33:28.044Z,6.06
2023-03-20T10:36:11.505Z,6.49
2023-03-20T10:38:47.111Z,6.46
2023-03-20T10:41:19.017Z,6.04
2023-03-20T10:43:49.918Z,6.42
2023-03-20T10:46:23.396Z,6.40
2023-03-20T10:48:58.103Z,6.57
2023-03-20T10:51:40.255Z,6.65
2023-03-20T10:54:20.849Z,6.59
2023-03-20T10:56:52.225Z,6.80
2023-03-20T10:59:24.886Z,6.83
2023-03-20T11:01:52.973Z,6.79
2023-03-20T11:04:21.343Z,6.86
2023-03-20T11:06:58.524Z,6.98
2023-03-20T11:09:27.152Z,7.02
2023-03-20T11:11:59.173Z,7.04
2023-03-20T11:14:33.514Z,7.09
2023-03-20T11:17:03.963Z,7.19
2023-03-20T11:19:35.924Z,7.30
2023-03-20T11:22:26.872Z,7.44
2023-03-20T11:25:01.714Z,7.38
2023-03-20T11:27:31.799Z,7.34
2023-03-20T11:30:03.753Z,7.28
2023-03-20T11:32:34.030Z,7.20
2023-03-20T11:35:13.353Z,7.22
2023-03-20T11:37:47.862Z,7.24
2023-03-20T11:40:22.807Z,7.25
2023-03-20T11:42:57.227Z,7.28
2023-03-20T11:45:25.815Z,7.32
2023-03-20T11:47:56.412Z,7.35
2023-03-20T11:50:32.644Z,7.40
2023-03-20T11:53:02.648Z,7.46
2023-03-20T11:55:33.446Z,7.46
2023-03-20T11:58:04.300Z,7.16
2023-03-20T12:00:38.804Z,7.46
2023-03-20T12:03:29.377Z,7.44
2023-03-20T12:06:01.968Z,7.41
2023-03-20T12:08:33.592Z,7.38
2023-03-20T12:11:11.146Z,7.39
2023-03-20T12:13:44.698Z,7.37
2023-03-20T12:16:16.945Z,7.44
2023-03-20T12:18:47.704Z,7.43
2023-03-20T12:21:22.442Z,7.60
2023-03-20T12:23:57.498Z,7.83
2023-03-20T12:26:33.937Z,7.28
2023-03-20T12:29:08.000Z,8.08
2023-03-20T12:31:43.325Z,8.08
2023-03-20T12:34:13.905Z,8.10
2023-03-20T12:36:44.907Z,7.90
2023-03-20T12:39:17.430Z,8.04
2023-03-20T12:41:58.304Z,8.05
2023-03-20T12:44:39.634Z,7.93
2023-03-20T12:47:36.348Z,7.96
2023-03-20T12:50:16.739Z,7.90
2023-03-20T12:52:53.105Z,7.72
2023-03-20T12:55:35.005Z,7.78
2023-03-20T12:58:09.601Z,7.70
2023-03-20T13:00:45.984Z,7.68
2023-03-20T13:03:46.418Z,7.65
2023-03-20T13:06:21.169Z,7.32
2023-03-20T13:09:06.806Z,7.57
2023-03-20T13:11:44.162Z,7.53
2023-03-20T13:14:19.444Z,7.49
2023-03-20T13:16:53.921Z,7.46
2023-03-20T13:19:29.517Z,7.14
2023-03-20T13:22:03.856Z,7.44
2023-03-20T13:24:41.373Z,7.47
2023-03-20T13:27:32.323Z,7.47
2023-03-20T13:30:05.173Z,6.75
2023-03-20T13:32:47.473Z,7.57
2023-03-20T13:35:29.302Z,7.29
2023-03-20T13:38:01.682Z,7.60
2023-03-20T13:40:31.252Z,7.58
2023-03-20T13:43:09.777Z,7.34
2023-03-20T13:45:40.297Z,7.57
2023-03-20T13:48:24.348Z,7.53
2023-03-20T13:51:02.251Z,7.52
2023-03-20T13:53:36.306Z,7.50
2023-03-20T13:56:12.915Z,7.07
2023-03-20T13:59:08.020Z,6.76
2023-03-20T14:01:49.397Z,7.46
2023-03-20T14:04:20.313Z,7.38
2023-03-20T14:06:54.071Z,7.17
2023-03-20T14:09:32.197Z,7.25
2023-03-20T14:12:06.522Z,7.09
2023-03-20T14:14:43.247Z,7.13
2023-03-20T14:17:19.152Z,6.66
2023-03-20T14:19:48.078Z,7.03
2023-03-20T14:22:19.099Z,6.88
2023-03-20T14:24:55.072Z,5.95
2023-03-20T14:27:42.899Z,6.47
2023-03-20T14:30:41.951Z,6.51
2023-03-20T14:33:27.191Z,6.43
2023-03-20T14:36:18.940Z,6.31
2023-03-20T14:38:55.099Z,6.25
2023-03-20T14:41:28.147Z,6.24
2023-03-20T14:44:07.558Z,6.30
2023-03-20T14:46:48.960Z,6.32
2023-03-20T14:49:27.686Z,6.32
2023-03-20T14:52:02.043Z,6.23
2023-03-20T14:54:31.418Z,6.26
2023-03-20T14:57:11.331Z,5.99
2023-03-20T14:59:39.541Z,6.19
2023-03-20T15:02:28.145Z,6.19
2023-03-20T15:04:57.449Z,6.18
2023-03-20T15:07:27.650Z,6.05
2023-03-20T15:09:59.314Z,5.91
2023-03-20T15:12:30.253Z,5.93
2023-03-20T15:15:00.004Z,5.90
2023-03-20T15:17:36.127Z,5.84
2023-03-20T15:20:08.252Z,5.72
2023-03-20T15:22:36.196Z,5.34
2023-03-20T15:25:04.868Z,5.58
2023-03-20T15:27:32.829Z,5.29
2023-03-20T15:30:03.844Z,5.23
2023-03-20T15:32:34.479Z,5.32
2023-03-20T15:35:06.191Z,5.23
2023-03-20T15:37:35.976Z,4.88
2023-03-20T15:40:13.174Z,5.11
2023-03-20T15:42:41.295Z,5.07
2023-03-20T15:45:22.675Z,4.99
2023-03-20T15:47:52.048Z,4.51
2023-03-20T15:50:20.438Z,4.86
2023-03-20T15:52:53.360Z,4.80
2023-03-20T15:55:25.996Z,4.07
2023-03-20T15:57:58.391Z,4.74
2023-03-20T16:00:30.571Z,4.54
2023-03-20T16:03:01.513Z,4.67
2023-03-20T16:05:31.373Z,4.66
2023-03-20T16:08:13.783Z,4.56
2023-03-20T16:10:44.052Z,4.46
2023-03-20T16:13:17.269Z,4.36
2023-03-20T16:15:48.677Z,4.31
2023-03-20T16:18:18.913Z,4.07
2023-03-20T16:20:53.618Z,4.07
2023-03-20T16:23:33.610Z,4.17
2023-03-20T16:26:03.617Z,3.92
2023-03-20T16:28:32.034Z,3.98
2023-03-20T16:31:10.390Z,4.03
2023-03-20T16:33:41.724Z,4.04
2023-03-20T16:36:10.680Z,4.01
2023-03-20T16:38:38.738Z,3.96
2023-03-20T16:41:17.967Z,3.51
2023-03-20T16:43:47.997Z,3.83
2023-03-20T16:46:23.361Z,3.70
2023-03-20T16:48:57.584Z,3.78
2023-03-20T16:51:28.266Z,3.77
2023-03-20T16:53:59.498Z,3.76
2023-03-20T16:56:30.460Z,3.74
2023-03-20T16:58:58.278Z,3.69
2023-03-20T17:01:29.698Z,3.50
2023-03-20T17:04:12.593Z,3.62
2023-03-20T17:06:47.394Z,3.64
2023-03-20T17:09:23.445Z,3.50
2023-03-20T17:11:58.026Z,3.64
2023-03-20T17:14:26.359Z,3.61
2023-03-20T17:16:55.495Z,3.31
2023-03-20T17:19:25.666Z,3.53
2023-03-20T17:21:53.690Z,3.48
2023-03-20T17:24:21.688Z,3.44
2023-03-20T17:26:54.524Z,3.38
2023-03-20T17:29:22.520Z,3.33
2023-03-20T17:31:50.414Z,3.27
2023-03-20T17:34:18.444Z,3.26
2023-03-20T17:36:49.165Z,3.26
2023-03-20T17:39:20.105Z,3.08
2023-03-20T17:41:48.685Z,3.18
2023-03-20T17:44:16.591Z,3.02
2023-03-20T17:46:57.707Z,3.16
2023-03-20T17:49:28.274Z,3.16
2023-03-20T17:51:57.995Z,3.19
2023-03-20T17:54:26.322Z,3.20
2023-03-20T17:56:54.421Z,3.20
2023-03-20T17:59:22.438Z,3.21
2023-03-20T18:01:50.687Z,3.17
2023-03-20T18:04:19.989Z,3.06
2023-03-20T18:06:49.190Z,3.15
2023-03-20T18:09:18.635Z,3.13
2023-03-20T18:11:46.460Z,3.11
2023-03-20T18:14:18.201Z,3.07
2023-03-20T18:16:46.346Z,3.05
2023-03-20T18:19:23.538Z,2.71
2023-03-20T18:21:51.569Z,2.98
2023-03-20T18:24:23.660Z,2.92
2023-03-20T18:26:53.054Z,2.88
2023-03-20T18:29:21.453Z,2.85
2023-03-20T18:31:51.580Z,2.68
2023-03-20T18:34:19.966Z,2.18
2023-03-20T18:36:47.957Z,2.52
2023-03-20T18:39:21.796Z,2.60
2023-03-20T18:41:50.358Z,2.52
2023-03-20T18:44:18.460Z,2.43
2023-03-20T18:46:46.685Z,2.16
2023-03-20T18:49:16.612Z,2.32
2023-03-20T18:51:45.259Z,0.98
2023-03-20T18:54:13.753Z,2.19
2023-03-20T18:56:43.243Z,2.12
2023-03-20T18:59:13.785Z,2.07
2023-03-20T19:01:41.884Z,2.03
2023-03-20T19:04:10.186Z,2.03
2023-03-20T19:06:38.124Z,2.02
2023-03-20T19:09:06.536Z,1.75
2023-03-20T19:11:34.407Z,2.06
2023-03-20T19:14:03.658Z,2.08
2023-03-20T19:16:35.090Z,2.13
2023-03-20T19:19:04.669Z,2.15
2023-03-20T19:21:34.292Z,2.21
2023-03-20T19:24:03.549Z,1.90
2023-03-20T19:26:32.605Z,2.27
2023-03-20T19:29:02.879Z,2.31
2023-03-20T19:31:32.408Z,1.80
2023-03-20T19:34:01.678Z,2.35
2023-03-20T19:36:31.559Z,2.36
2023-03-20T19:39:01.169Z,2.35
2023-03-20T19:41:29.895Z,2.27
2023-03-20T19:43:58.344Z,1.35
2023-03-20T19:46:39.713Z,2.12
2023-03-20T19:49:18.575Z,2.11
2023-03-20T19:51:47.207Z,2.11
2023-03-20T19:54:15.326Z,1.87
2023-03-20T19:56:43.165Z,2.09
2023-03-20T19:59:11.647Z,2.10
2023-03-20T20:01:39.675Z,2.09
2023-03-20T20:04:07.780Z,2.10
2023-03-20T20:06:39.757Z,2.09
2023-03-20T20:09:08.232Z,2.09
2023-03-20T20:11:36.112Z,1.27
2023-03-20T20:14:07.733Z,2.07
2023-03-20T20:16:37.740Z,2.07
2023-03-20T20:19:06.461Z,2.08
2023-03-20T20:24:23.856Z,2.04
2023-03-20T20:26:59.549Z,2.04
2023-03-20T20:29:31.524Z,1.99
2023-03-20T20:32:01.007Z,2.05
2023-03-20T20:38:09.021Z,1.65
2023-03-20T20:40:08.672Z,1.98
2023-03-20T20:42:37.642Z,1.95
2023-03-20T20:45:07.001Z,1.93
2023-03-20T20:47:35.097Z,1.77
2023-03-20T20:50:04.266Z,1.76
2023-03-20T20:52:35.415Z,1.86
2023-03-20T20:55:19.275Z,1.83
2023-03-20T20:57:52.105Z,1.44
2023-03-20T21:00:21.355Z,1.70
2023-03-20T21:02:49.264Z,1.67
2023-03-20T21:05:18.779Z,1.39
2023-03-20T21:07:49.335Z,1.46
2023-03-20T21:10:19.394Z,1.22
2023-03-20T21:12:58.645Z,1.47
2023-03-20T21:15:29.211Z,1.27
2023-03-20T21:18:01.529Z,1.33
2023-03-20T21:20:30.094Z,1.27
2023-03-20T21:22:58.394Z,1.23
2023-03-20T21:25:39.233Z,1.18
2023-03-20T21:28:08.274Z,1.14
2023-03-20T21:30:44.260Z,1.11
2023-03-20T21:33:25.275Z,1.08
2023-03-20T21:35:54.612Z,0.92
2023-03-20T21:38:58.568Z,1.02
2023-03-20T21:41:11.621Z,0.95
2023-03-20T21:43:39.800Z,0.92
2023-03-20T21:49:43.636Z,0.82
2023-03-20T21:55:12.843Z,0.73
2023-03-20T21:58:04.133Z,0.47
2023-03-20T22:03:10.028Z,0.60
2023-03-20T22:26:08.191Z,0.35
2023-03-20T22:45:11.715Z,0.61
2023-03-20T22:47:40.019Z,0.65
2023-03-20T22:50:09.067Z,0.72
2023-03-20T22:52:48.716Z,0.77
2023-03-20T22:55:18.110Z,0.43
2023-03-20T22:58:03.772Z,0.44
2023-03-20T23:00:33.527Z,0.80
2023-03-20T23:03:15.398Z,0.83
2023-03-20T23:05:45.794Z,0.52
2023-03-20T23:08:15.281Z,0.88
2023-03-20T23:10:44.794Z,0.91
2023-03-20T23:13:13.240Z,0.93
2023-03-20T23:15:41.877Z,0.95
2023-03-20T23:18:11.468Z,0.85
2023-03-20T23:20:39.536Z,0.96
2023-03-20T23:23:07.826Z,0.81
2023-03-20T23:25:39.704Z,0.30
2023-03-20T23:28:08.682Z,0.94
2023-03-20T23:30:45.245Z,0.95
2023-03-20T23:33:14.994Z,0.98
2023-03-20T23:35:42.883Z,0.99
2023-03-20T23:38:10.929Z,0.88
2023-03-20T23:40:40.608Z,1.01
2023-03-20T23:43:08.675Z,1.03
2023-03-20T23:45:36.743Z,0.69
2023-03-20T23:48:05.567Z,1.02
2023-03-20T23:50:46.072Z,0.99
2023-03-20T23:53:21.177Z,0.98
2023-03-20T23:55:53.742Z,0.97
2023-03-20T23:58:23.381Z,0.93
